Time;durP1;ratioP1;P1;durP2;ratioP2;P2;SDS_P1;SDS_P2;PMS_P1;PMS_P2;Temp;Humidity;BMP_temperature;BMP_pressure;BME280_temperature;BME280_humidity;BME280_pressure;Samples;Min_cycle;Max_cycle;Signal;HPM_P1;HPM_P2
2023/09/27 00:00:17;;;;;;;12.45;2.80;;;;;;;12.69;100.00;100745.34;5053589;28;20108;-88
2023/09/27 00:02:43;;;;;;;16.65;2.25;;;;;;;12.76;100.00;100751.81;5034808;28;20395;-88
2023/09/27 00:05:11;;;;;;;10.43;2.92;;;;;;;12.93;100.00;100734.38;5053504;28;20029;-88
2023/09/27 00:07:38;;;;;;;8.77;1.85;;;;;;;13.02;100.00;100737.25;5053387;28;20029;-88
2023/09/27 00:10:11;;;;;;;14.07;2.75;;;;;;;13.05;100.00;100736.22;5053192;28;20048;-88
2023/09/27 00:12:37;;;;;;;9.25;2.03;;;;;;;12.91;100.00;100731.88;5053051;28;20028;-88
2023/09/27 00:15:03;;;;;;;9.50;2.47;;;;;;;12.76;100.00;100720.72;5053152;28;20021;-88
2023/09/27 00:17:29;;;;;;;10.55;2.55;;;;;;;12.74;100.00;100719.16;5052229;28;20536;-88
2023/09/27 00:19:55;;;;;;;10.10;2.40;;;;;;;12.62;100.00;100718.16;5052448;28;20025;-88
2023/09/27 00:22:20;;;;;;;10.73;2.45;;;;;;;12.55;100.00;100712.50;5052917;28;20495;-89
2023/09/27 00:24:46;;;;;;;7.63;2.00;;;;;;;12.56;100.00;100713.38;5053110;28;20029;-89
2023/09/27 00:27:12;;;;;;;7.63;2.05;;;;;;;12.55;100.00;100709.91;5052759;28;20021;-88
2023/09/27 00:29:37;;;;;;;9.10;1.63;;;;;;;12.56;100.00;100709.00;5052992;28;20031;-89
2023/09/27 00:32:04;;;;;;;11.23;1.80;;;;;;;12.50;100.00;100711.97;5052930;28;20028;-89
2023/09/27 00:34:29;;;;;;;8.52;2.10;;;;;;;12.53;100.00;100721.28;5052587;28;20074;-88
2023/09/27 00:36:54;;;;;;;11.05;1.83;;;;;;;12.55;100.00;100722.03;5052753;28;20104;-89
2023/09/27 00:39:20;;;;;;;8.77;2.17;;;;;;;12.58;100.00;100727.03;5053047;28;20104;-89
2023/09/27 00:41:45;;;;;;;9.73;2.40;;;;;;;12.60;100.00;100732.94;5052583;28;20036;-89
2023/09/27 00:44:11;;;;;;;9.65;2.10;;;;;;;12.53;100.00;100740.25;5052778;28;20060;-89
2023/09/27 00:46:36;;;;;;;7.97;1.83;;;;;;;12.55;100.00;100742.75;5053041;28;20032;-89
2023/09/27 00:49:02;;;;;;;13.40;2.50;;;;;;;12.65;100.00;100736.06;5052525;28;20475;-89
2023/09/27 00:51:29;;;;;;;15.70;3.33;;;;;;;12.60;100.00;100741.53;5052843;28;20469;-89
2023/09/27 00:53:55;;;;;;;9.57;1.77;;;;;;;12.50;100.00;100750.78;5052436;28;20060;-89
2023/09/27 00:56:21;;;;;;;8.95;2.45;;;;;;;12.47;100.00;100750.16;5052445;28;20502;-88
2023/09/27 00:58:47;;;;;;;16.63;3.38;;;;;;;12.48;100.00;100734.50;5052271;28;20029;-88
2023/09/27 01:01:13;;;;;;;11.57;2.03;;;;;;;12.28;100.00;100724.53;5052396;28;20021;-89
2023/09/27 01:03:39;;;;;;;9.93;1.67;;;;;;;12.50;100.00;100708.53;5052291;28;20017;-89
2023/09/27 01:06:04;;;;;;;8.13;1.65;;;;;;;12.45;100.00;100711.41;5052104;28;20484;-88
2023/09/27 01:08:30;;;;;;;9.75;1.98;;;;;;;12.42;100.00;100711.59;5052175;28;20074;-88
2023/09/27 01:10:55;;;;;;;7.80;1.80;;;;;;;12.34;100.00;100703.47;5052250;28;20029;-88
2023/09/27 01:13:21;;;;;;;7.65;1.90;;;;;;;12.35;100.00;100698.19;5052274;28;20530;-89
2023/09/27 01:15:47;;;;;;;11.75;1.63;;;;;;;12.27;100.00;100703.00;5052233;28;20035;-89
2023/09/27 01:18:13;;;;;;;12.57;2.38;;;;;;;12.18;100.00;100703.56;5052016;28;20017;-89
2023/09/27 01:20:38;;;;;;;11.25;2.03;;;;;;;12.11;100.00;100716.03;5052009;28;20029;-89
2023/09/27 01:23:05;;;;;;;8.85;2.15;;;;;;;12.14;100.00;100709.84;5051917;28;20060;-89
2023/09/27 01:25:32;;;;;;;7.90;2.00;;;;;;;12.13;100.00;100709.00;5052046;28;20031;-89
2023/09/27 01:27:59;;;;;;;6.15;1.30;;;;;;;12.16;100.00;100716.56;5051913;28;20025;-88
2023/09/27 01:30:25;;;;;;;8.85;1.50;;;;;;;12.20;100.00;100707.72;5052065;28;20025;-89
2023/09/27 01:32:51;;;;;;;4.53;1.23;;;;;;;12.12;100.00;100697.00;5051968;28;20031;-89
2023/09/27 01:35:17;;;;;;;7.60;1.35;;;;;;;12.07;100.00;100703.34;5051998;28;20035;-89
2023/09/27 01:37:42;;;;;;;6.35;1.88;;;;;;;12.08;100.00;100703.28;5051882;28;20410;-88
2023/09/27 01:40:14;;;;;;;9.57;1.45;;;;;;;12.10;100.00;100687.66;5051725;28;20028;-88
2023/09/27 01:42:43;;;;;;;5.78;1.40;;;;;;;12.14;100.00;100687.41;5051598;28;20029;-89
2023/09/27 01:45:15;;;;;;;6.93;1.20;;;;;;;12.11;100.00;100686.75;5051071;28;20040;-89
2023/09/27 01:47:40;;;;;;;;;;;;;;;12.13;100.00;100690.06;5052267;28;20029;-89
2023/09/27 01:50:09;;;;;;;8.63;1.63;;;;;;;12.12;100.00;100675.44;5051725;28;20267;-89
2023/09/27 01:52:34;;;;;;;7.97;1.52;;;;;;;12.11;100.00;100666.03;5051446;28;20258;-89
2023/09/27 01:55:00;;;;;;;12.63;2.10;;;;;;;12.20;100.00;100675.84;5051669;28;20028;-89
2023/09/27 01:57:25;;;;;;;6.60;1.80;;;;;;;12.21;100.00;100677.50;5051628;28;20395;-88
2023/09/27 01:59:50;;;;;;;8.30;1.67;;;;;;;12.21;100.00;100669.72;5051609;28;20107;-88
2023/09/27 02:02:16;;;;;;;10.10;2.03;;;;;;;12.19;100.00;100664.66;5051488;28;20021;-89
2023/09/27 02:04:41;;;;;;;6.47;1.73;;;;;;;12.27;100.00;100669.38;5051585;28;20475;-89
2023/09/27 02:07:07;;;;;;;11.15;1.70;;;;;;;12.26;100.00;100654.75;5051537;28;20025;-89
2023/09/27 02:09:32;;;;;;;11.07;2.38;;;;;;;12.37;100.00;100657.53;5050213;28;20032;-88
2023/09/27 02:11:58;;;;;;;8.25;2.35;;;;;;;12.37;100.00;100667.88;5051556;28;20021;-88
2023/09/27 02:14:23;;;;;;;6.47;1.60;;;;;;;12.29;100.00;100670.13;5051505;28;20033;-89
2023/09/27 02:16:48;;;;;;;8.70;1.45;;;;;;;12.37;100.00;100678.22;5033669;28;20028;-89
2023/09/27 02:19:14;;;;;;;13.52;2.78;;;;;;;12.30;100.00;100679.53;5051226;28;20025;-88
2023/09/27 02:21:39;;;;;;;7.85;2.08;;;;;;;12.20;100.00;100675.84;5051279;28;20030;-88
2023/09/27 02:24:06;;;;;;;9.98;2.10;;;;;;;12.07;100.00;100677.47;5051507;28;20471;-88
2023/09/27 02:26:31;;;;;;;8.77;1.70;;;;;;;12.07;100.00;100675.75;5051313;28;20070;-89
2023/09/27 02:28:56;;;;;;;7.05;1.58;;;;;;;12.03;100.00;100673.44;5051499;28;20025;-88
2023/09/27 02:31:22;;;;;;;7.18;1.73;;;;;;;11.97;100.00;100674.63;5051203;28;20025;-88
2023/09/27 02:33:47;;;;;;;7.30;1.60;;;;;;;11.89;100.00;100677.66;5051375;28;20036;-88
2023/09/27 02:36:13;;;;;;;13.57;2.67;;;;;;;11.90;100.00;100679.34;5049763;28;20029;-88
2023/09/27 02:38:38;;;;;;;9.35;2.30;;;;;;;11.96;100.00;100678.97;5033027;28;20475;-88
2023/09/27 02:41:04;;;;;;;11.77;2.53;;;;;;;11.87;100.00;100665.75;5051477;28;20455;-89
2023/09/27 02:43:29;;;;;;;8.98;1.88;;;;;;;11.76;100.00;100666.34;5051164;28;20071;-89
2023/09/27 02:45:55;;;;;;;13.90;2.42;;;;;;;11.87;100.00;100657.97;5051317;28;20036;-89
2023/09/27 02:48:20;;;;;;;11.88;2.78;;;;;;;11.80;100.00;100652.31;5051302;28;21030;-89
2023/09/27 02:50:50;;;;;;;9.88;2.08;;;;;;;11.70;100.00;100654.59;5050999;28;20049;-88
2023/09/27 02:53:16;;;;;;;8.10;2.28;;;;;;;11.85;100.00;100647.72;5051114;28;20021;-88
2023/09/27 02:55:42;;;;;;;12.82;2.83;;;;;;;11.75;100.00;100655.19;5033576;28;20509;-89
2023/09/27 02:58:07;;;;;;;9.55;2.53;;;;;;;11.76;100.00;100653.44;5054686;28;20061;-89
2023/09/27 03:00:34;;;;;;;6.85;2.30;;;;;;;11.80;100.00;100636.78;5054874;28;20025;-89
2023/09/27 03:03:00;;;;;;;10.23;2.28;;;;;;;11.80;100.00;100631.63;5054632;28;20378;-88
2023/09/27 03:05:26;;;;;;;16.33;2.80;;;;;;;11.75;100.00;100628.47;5054639;28;20024;-88
2023/09/27 03:07:52;;;;;;;8.63;2.40;;;;;;;11.64;100.00;100620.53;5054639;28;20090;-88
2023/09/27 03:10:18;;;;;;;6.85;2.22;;;;;;;11.52;100.00;100612.56;5054598;28;20048;-89
2023/09/27 03:12:51;;;;;;;9.05;2.42;;;;;;;11.62;100.00;100612.03;5054476;28;20029;-88
2023/09/27 03:15:17;;;;;;;11.38;3.33;;;;;;;11.82;100.00;100613.44;5054444;28;20025;-88
2023/09/27 03:17:44;;;;;;;8.98;2.55;;;;;;;11.72;100.00;100628.66;5054394;28;20029;-88
2023/09/27 03:20:14;;;;;;;13.32;2.60;;;;;;;11.64;100.00;100631.69;5054258;28;20028;-89
2023/09/27 03:22:39;;;;;;;8.77;2.20;;;;;;;11.56;100.00;100619.22;5054274;28;20032;-88
2023/09/27 03:25:07;;;;;;;16.90;3.28;;;;;;;11.57;100.00;100609.72;5054287;28;20021;-88
2023/09/27 03:27:33;;;;;;;15.57;3.25;;;;;;;11.60;100.00;100613.88;5054188;28;20115;-88
2023/09/27 03:29:59;;;;;;;12.27;2.63;;;;;;;11.53;100.00;100619.41;5054231;28;20108;-88
2023/09/27 03:32:24;;;;;;;9.48;3.08;;;;;;;11.54;100.00;100613.31;5054093;28;20493;-88
2023/09/27 03:34:51;;;;;;;11.57;2.70;;;;;;;11.65;100.00;100606.69;5054033;28;20108;-88
2023/09/27 03:37:16;;;;;;;11.85;2.15;;;;;;;11.63;100.00;100593.84;5054007;28;20029;-88
2023/09/27 03:39:42;;;;;;;8.75;2.00;;;;;;;11.61;100.00;100594.84;5053997;28;20017;-88
2023/09/27 03:42:07;;;;;;;8.60;2.53;;;;;;;11.66;100.00;100595.44;5053891;28;20024;-89
2023/09/27 03:44:33;;;;;;;8.13;2.08;;;;;;;11.60;100.00;100599.19;5054232;28;20471;-88
2023/09/27 03:46:58;;;;;;;9.55;2.60;;;;;;;11.65;100.00;100594.56;5053740;28;20491;-88
2023/09/27 03:49:24;;;;;;;8.13;2.50;;;;;;;11.64;100.00;100579.16;5053909;28;20040;-89
2023/09/27 03:51:49;;;;;;;14.13;2.72;;;;;;;11.69;100.00;100577.13;5053471;28;20426;-88
2023/09/27 03:54:15;;;;;;;10.02;2.83;;;;;;;11.67;100.00;100561.72;5053815;28;20028;-88
2023/09/27 03:56:40;;;;;;;9.98;2.92;;;;;;;11.67;100.00;100553.13;5053893;28;20063;-89
2023/09/27 03:59:06;;;;;;;8.98;3.10;;;;;;;11.77;100.00;100559.41;5053727;28;20123;-88
2023/09/27 04:01:32;;;;;;;8.88;3.15;;;;;;;11.81;100.00;100576.41;5053676;28;20075;-89
2023/09/27 04:03:58;;;;;;;10.15;2.85;;;;;;;11.76;100.00;100586.19;5053469;28;20067;-88
2023/09/27 04:06:24;;;;;;;9.10;3.30;;;;;;;11.81;100.00;100584.16;5053357;28;20391;-88
2023/09/27 04:08:50;;;;;;;8.45;3.00;;;;;;;11.84;100.00;100555.53;5052846;28;20021;-88
2023/09/27 04:11:15;;;;;;;8.63;3.38;;;;;;;11.96;100.00;100559.97;5053286;28;20028;-89
2023/09/27 04:13:40;;;;;;;8.13;3.05;;;;;;;12.06;100.00;100575.75;5053322;28;20029;-88
2023/09/27 04:16:06;;;;;;;7.30;2.90;;;;;;;12.05;100.00;100573.28;5053271;28;20565;-88
2023/09/27 04:18:32;;;;;;;6.65;2.60;;;;;;;12.12;100.00;100569.38;5053188;28;20031;-89
2023/09/27 04:21:06;;;;;;;6.57;2.70;;;;;;;12.20;100.00;100593.03;5053461;28;20486;-88
2023/09/27 04:23:31;;;;;;;5.70;3.53;;;;;;;12.29;100.00;100565.72;5053235;28;20025;-88
2023/09/27 04:25:57;;;;;;;7.60;3.60;;;;;;;12.25;100.00;100565.09;5053157;28;20031;-88
2023/09/27 04:28:22;;;;;;;6.35;3.45;;;;;;;12.21;100.00;100550.69;5053108;28;20386;-88
2023/09/27 04:30:47;;;;;;;10.93;3.75;;;;;;;12.30;100.00;100526.81;5035225;28;20076;-88
2023/09/27 04:33:15;;;;;;;16.98;4.55;;;;;;;12.48;100.00;100487.75;5052978;28;20021;-88
2023/09/27 04:35:40;;;;;;;9.80;3.75;;;;;;;12.39;100.00;100507.31;5052861;28;20040;-88
2023/09/27 04:38:05;;;;;;;13.73;3.75;;;;;;;12.37;100.00;100480.69;5052991;28;20389;-88
2023/09/27 04:40:31;;;;;;;12.98;4.63;;;;;;;12.50;100.00;100488.50;5052707;28;20379;-88
2023/09/27 04:42:56;;;;;;;20.15;4.20;;;;;;;12.30;100.00;100506.13;5052760;28;20261;-88
2023/09/27 04:45:22;;;;;;;19.52;4.22;;;;;;;12.31;100.00;100538.00;5052852;28;20033;-88
2023/09/27 04:47:48;;;;;;;12.60;4.57;;;;;;;12.29;100.00;100534.69;5052515;28;20443;-88
2023/09/27 04:50:14;;;;;;;7.97;4.13;;;;;;;12.31;100.00;100541.41;5052683;28;20057;-88
2023/09/27 04:52:40;;;;;;;8.73;3.88;;;;;;;12.45;100.00;100524.19;5052645;28;20016;-88
2023/09/27 04:55:07;;;;;;;6.43;3.65;;;;;;;12.42;100.00;100507.94;5052772;28;20020;-88
2023/09/27 04:57:32;;;;;;;10.32;3.63;;;;;;;12.42;100.00;100476.88;5052491;28;20025;-88
2023/09/27 04:59:58;;;;;;;14.98;4.38;;;;;;;12.35;100.00;100436.78;5052302;28;20087;-89
2023/09/27 05:02:24;;;;;;;8.98;4.07;;;;;;;12.38;100.00;100387.38;5052460;28;20082;-89
2023/09/27 05:04:49;;;;;;;7.30;3.90;;;;;;;12.27;100.00;100386.47;5052463;28;20028;-88
2023/09/27 05:07:16;;;;;;;19.92;5.72;;;;;;;12.34;100.00;100461.00;5052191;28;20032;-88
2023/09/27 05:09:42;;;;;;;12.20;5.45;;;;;;;12.32;100.00;100517.22;5052317;28;20562;-88
2023/09/27 05:12:07;;;;;;;9.23;4.80;;;;;;;12.39;100.00;100520.25;5052340;28;20108;-88
2023/09/27 05:14:32;;;;;;;10.45;4.88;;;;;;;12.37;100.00;100517.75;5052256;28;20029;-89
2023/09/27 05:16:58;;;;;;;14.95;5.07;;;;;;;12.44;100.00;100510.44;5052252;28;20103;-89
2023/09/27 05:19:23;;;;;;;13.07;4.35;;;;;;;12.46;100.00;100505.13;5051181;28;20029;-89
2023/09/27 05:21:48;;;;;;;17.67;4.75;;;;;;;12.53;100.00;100502.06;5051997;28;20048;-88
2023/09/27 05:24:14;;;;;;;14.80;4.55;;;;;;;12.57;100.00;100503.53;5052132;28;20025;-89
2023/09/27 05:26:39;;;;;;;18.85;5.43;;;;;;;12.63;100.00;100495.38;5052139;28;20051;-88
2023/09/27 05:29:04;;;;;;;8.63;3.75;;;;;;;12.63;100.00;100497.09;5051951;28;20108;-88
2023/09/27 05:31:30;;;;;;;14.10;5.18;;;;;;;12.68;100.00;100473.50;5051835;28;20100;-88
2023/09/27 05:33:55;;;;;;;11.93;4.47;;;;;;;12.75;100.00;100460.06;5051804;28;20104;-88
2023/09/27 05:36:20;;;;;;;14.63;4.63;;;;;;;12.89;100.00;100450.53;5052111;28;20025;-88
2023/09/27 05:38:46;;;;;;;15.38;4.70;;;;;;;12.85;100.00;100497.38;5051943;28;20548;-88
2023/09/27 05:41:11;;;;;;;11.15;4.30;;;;;;;12.77;100.00;100498.81;5051968;28;20025;-88
2023/09/27 05:43:37;;;;;;;16.75;4.43;;;;;;;12.81;100.00;100487.31;5051828;28;20482;-88
2023/09/27 05:46:02;;;;;;;13.88;4.40;;;;;;;12.90;100.00;100478.94;5051805;28;20041;-88
2023/09/27 05:48:28;;;;;;;14.85;4.38;;;;;;;12.85;100.00;100473.25;5051695;28;20017;-88
2023/09/27 05:50:53;;;;;;;9.73;3.80;;;;;;;12.95;100.00;100479.47;5051517;28;20379;-88
2023/09/27 05:53:19;;;;;;;14.20;4.22;;;;;;;12.94;100.00;100470.03;5051762;28;20429;-88
2023/09/27 05:55:44;;;;;;;12.65;4.03;;;;;;;12.98;100.00;100455.13;5051709;28;20463;-87
2023/09/27 05:58:10;;;;;;;20.70;4.70;;;;;;;12.95;100.00;100461.34;5051772;28;20471;-89
2023/09/27 06:00:40;;;;;;;13.18;4.00;;;;;;;12.91;100.00;100472.00;5051108;28;20046;-88
2023/09/27 06:03:06;;;;;;;11.85;3.72;;;;;;;12.89;100.00;100477.28;5046713;28;20027;-88
2023/09/27 06:05:32;;;;;;;14.57;4.82;;;;;;;12.95;100.00;100473.44;5050723;28;20025;-89
2023/09/27 06:07:58;;;;;;;11.00;3.60;;;;;;;12.97;100.00;100474.16;5051218;28;20493;-90
2023/09/27 06:10:23;;;;;;;12.40;4.00;;;;;;;13.13;100.00;100469.63;5051509;28;20025;-90
2023/09/27 06:12:49;;;;;;;14.93;4.70;;;;;;;13.06;100.00;100466.59;5050426;28;20535;-89
2023/09/27 06:15:16;;;;;;;10.52;3.78;;;;;;;13.11;100.00;100461.13;5050911;28;20029;-88
2023/09/27 06:17:42;;;;;;;11.38;3.70;;;;;;;13.11;100.00;100470.66;5051103;28;20048;-89
2023/09/27 06:20:11;;;;;;;19.67;4.90;;;;;;;13.05;100.00;100467.56;5051278;28;20033;-89
2023/09/27 06:22:40;;;;;;;21.88;3.67;;;;;;;13.04;100.00;100471.06;5051297;28;20294;-89
2023/09/27 06:25:06;;;;;;;14.10;4.75;;;;;;;13.10;100.00;100475.00;5051382;28;20387;-89
2023/09/27 06:27:31;;;;;;;19.13;4.43;;;;;;;13.16;100.00;100481.53;5051559;28;20082;-88
2023/09/27 06:29:56;;;;;;;17.75;4.50;;;;;;;13.22;100.00;100474.19;5051217;28;20445;-89
2023/09/27 06:32:22;;;;;;;17.73;4.57;;;;;;;13.24;100.00;100456.78;5053101;28;20017;-89
2023/09/27 06:34:48;;;;;;;17.23;5.22;;;;;;;13.36;100.00;100451.69;5055254;28;20036;-89
2023/09/27 06:37:14;;;;;;;17.30;4.88;;;;;;;13.33;100.00;100449.31;5055366;28;20302;-88
2023/09/27 06:39:41;;;;;;;21.77;5.65;;;;;;;13.40;100.00;100442.78;5055143;28;20031;-88
2023/09/27 06:42:06;;;;;;;21.17;5.72;;;;;;;13.44;100.00;100436.47;5037053;28;20025;-89
2023/09/27 06:44:33;;;;;;;22.80;5.70;;;;;;;13.45;100.00;100443.28;5054995;28;20485;-88
2023/09/27 06:46:59;;;;;;;23.50;5.40;;;;;;;13.45;100.00;100432.91;5036975;28;20371;-88
2023/09/27 06:49:24;;;;;;;18.58;5.22;;;;;;;13.50;100.00;100441.19;5054935;28;20028;-88
2023/09/27 06:51:50;;;;;;;22.52;5.10;;;;;;;13.64;100.00;100448.03;5054860;28;20368;-88
2023/09/27 06:54:15;;;;;;;17.60;5.00;;;;;;;13.62;100.00;100447.31;5037053;28;20375;-89
2023/09/27 06:56:41;;;;;;;19.60;4.72;;;;;;;13.63;100.00;100452.38;5054914;28;20036;-88
2023/09/27 06:59:07;;;;;;;20.48;4.95;;;;;;;13.66;100.00;100451.34;5054793;28;20037;-88
2023/09/27 07:01:33;;;;;;;21.35;6.57;;;;;;;13.88;100.00;100445.47;5054552;28;20029;-88
2023/09/27 07:03:58;;;;;;;25.17;4.82;;;;;;;13.82;100.00;100440.69;5054730;28;20032;-88
2023/09/27 07:06:24;;;;;;;23.85;5.15;;;;;;;13.84;100.00;100457.00;5054621;28;20386;-88
2023/09/27 07:08:52;;;;;;;17.00;5.25;;;;;;;13.92;100.00;100457.25;5054530;28;20028;-88
2023/09/27 07:11:19;;;;;;;24.90;5.80;;;;;;;13.93;100.00;100458.94;5036558;28;20029;-88
2023/09/27 07:13:45;;;;;;;24.33;6.20;;;;;;;13.98;100.00;100466.41;5054585;28;20031;-88
2023/09/27 07:16:26;;;;;;;20.42;5.20;;;;;;;13.99;100.00;100466.28;5036512;28;20032;-88
2023/09/27 07:18:51;;;;;;;22.52;6.53;;;;;;;14.08;100.00;100460.44;5054350;28;20506;-90
2023/09/27 07:21:19;;;;;;;20.80;5.55;;;;;;;14.15;100.00;100460.00;5054387;28;20025;-88
2023/09/27 07:23:45;;;;;;;13.82;4.38;;;;;;;14.32;100.00;100460.44;5054284;28;20025;-88
2023/09/27 07:26:11;;;;;;;24.75;5.30;;;;;;;14.28;100.00;100446.00;5054094;28;20458;-90
2023/09/27 07:28:37;;;;;;;22.70;5.57;;;;;;;14.35;100.00;100449.00;5053923;28;20379;-90
2023/09/27 07:31:03;;;;;;;22.00;5.40;;;;;;;14.52;100.00;100450.34;5054285;28;20021;-90
2023/09/27 07:33:29;;;;;;;27.38;6.15;;;;;;;14.60;100.00;100455.00;5051892;28;20044;-89
2023/09/27 07:35:54;;;;;;;21.98;5.45;;;;;;;14.65;100.00;100455.50;5057926;28;20036;-91
2023/09/27 07:38:20;;;;;;;23.50;5.22;;;;;;;14.70;100.00;100442.97;5073821;28;20035;-90
2023/09/27 07:40:46;;;;;;;25.05;4.82;;;;;;;14.74;100.00;100436.63;5069643;28;20025;-88
2023/09/27 07:43:12;;;;;;;23.70;4.80;;;;;;;14.82;100.00;100442.06;5070754;28;20038;-89
2023/09/27 07:45:42;;;;;;;25.55;5.20;;;;;;;14.85;100.00;100431.47;5057815;28;20020;-89
2023/09/27 07:48:08;;;;;;;19.52;5.15;;;;;;;14.95;100.00;100434.19;5066249;28;20029;-89
2023/09/27 07:50:37;;;;;;;34.55;4.90;;;;;;;14.99;100.00;100438.19;5053457;28;20127;-89
2023/09/27 07:53:06;;;;;;;23.35;4.57;;;;;;;15.02;100.00;100426.75;5057913;28;20021;-87
2023/09/27 07:55:33;;;;;;;33.20;4.82;;;;;;;15.14;100.00;100412.78;5053256;28;20017;-87
2023/09/27 07:57:59;;;;;;;24.95;4.45;;;;;;;15.12;100.00;100404.31;5053508;28;20064;-87
2023/09/27 08:00:28;;;;;;;16.27;3.50;;;;;;;15.14;100.00;100394.59;5052139;28;20021;-86
2023/09/27 08:02:55;;;;;;;21.75;4.45;;;;;;;15.33;100.00;100394.00;5052584;28;20017;-86
2023/09/27 08:05:22;;;;;;;15.57;3.30;;;;;;;15.30;100.00;100389.88;5053436;28;20489;-88
2023/09/27 08:07:48;;;;;;;21.15;4.38;;;;;;;15.47;100.00;100380.75;5053265;28;20108;-88
2023/09/27 08:10:15;;;;;;;18.83;3.75;;;;;;;15.54;100.00;100381.09;5053229;28;20056;-90
2023/09/27 08:12:42;;;;;;;15.48;3.28;;;;;;;15.50;100.00;100390.09;5052897;28;20029;-90
2023/09/27 08:15:08;;;;;;;20.45;3.47;;;;;;;15.53;100.00;100389.84;5034730;28;20051;-89
2023/09/27 08:17:35;;;;;;;19.45;4.03;;;;;;;15.57;100.00;100380.84;5051544;28;20507;-89
2023/09/27 08:20:00;;;;;;;22.00;3.40;;;;;;;15.61;100.00;100361.47;5051763;28;20028;-90
2023/09/27 08:22:25;;;;;;;17.38;4.72;;;;;;;15.75;100.00;100311.78;5034981;28;20025;-89
2023/09/27 08:24:51;;;;;;;20.17;4.68;;;;;;;15.70;100.00;100302.66;5052228;28;20021;-90
2023/09/27 08:27:17;;;;;;;20.35;4.13;;;;;;;15.80;100.00;100325.22;5051905;28;20090;-89
2023/09/27 08:29:43;;;;;;;20.25;4.70;;;;;;;15.79;100.00;100312.34;5052724;28;20029;-90
2023/09/27 08:32:09;;;;;;;29.42;4.65;;;;;;;15.81;100.00;100306.06;5052270;28;20029;-90
2023/09/27 08:34:35;;;;;;;11.65;4.00;;;;;;;15.82;100.00;100306.88;5051771;28;20024;-90
2023/09/27 08:37:01;;;;;;;14.77;3.85;;;;;;;15.88;100.00;100321.19;5052468;28;20025;-91
2023/09/27 08:39:27;;;;;;;19.17;3.22;;;;;;;15.98;100.00;100311.66;5034497;28;20031;-92
2023/09/27 08:41:55;;;;;;;19.25;4.32;;;;;;;16.16;100.00;100314.50;5034866;28;20025;-94
2023/09/27 08:44:22;;;;;;;17.90;4.10;;;;;;;16.25;100.00;100309.38;5035139;28;20099;-90
2023/09/27 08:46:48;;;;;;;20.52;3.72;;;;;;;16.16;100.00;100314.50;5034439;28;20512;-91
2023/09/27 08:49:14;;;;;;;28.27;4.40;;;;;;;16.13;100.00;100315.59;5051380;28;20029;-91
2023/09/27 08:51:42;;;;;;;23.40;4.65;;;;;;;16.20;100.00;100319.34;5052527;28;20025;-91
2023/09/27 08:54:08;;;;;;;19.95;3.95;;;;;;;16.26;100.00;100320.59;5051959;28;20037;-91
2023/09/27 08:56:34;;;;;;;25.00;5.20;;;;;;;16.26;100.00;100310.19;5034457;28;20360;-90
2023/09/27 08:59:00;;;;;;;17.10;4.45;;;;;;;16.40;100.00;100298.63;5051846;28;20025;-89
2023/09/27 09:01:26;;;;;;;20.98;4.65;;;;;;;16.57;100.00;100292.00;5052303;28;20029;-90
2023/09/27 09:03:52;;;;;;;16.88;4.10;;;;;;;16.60;100.00;100287.31;5050475;28;20029;-88
2023/09/27 09:06:19;;;;;;;15.85;4.28;;;;;;;16.64;100.00;100293.94;5052298;28;20383;-89
2023/09/27 09:08:46;;;;;;;17.63;4.53;;;;;;;16.74;100.00;100267.09;5052611;28;20486;-89
2023/09/27 09:11:16;;;;;;;13.73;3.83;;;;;;;16.86;100.00;100266.06;5051769;28;20021;-88
2023/09/27 09:14:04;;;;;;;14.20;3.05;;;;;;;17.08;100.00;100260.63;5051841;28;20089;-88
2023/09/27 09:16:39;;;;;;;13.20;3.63;;;;;;;17.25;100.00;100253.09;5064570;28;20024;-87
2023/09/27 09:19:24;;;;;;;11.50;2.75;;;;;;;17.31;100.00;100260.38;5071258;28;20124;-87
2023/09/27 09:22:05;;;;;;;17.77;4.03;;;;;;;17.19;100.00;100266.69;5067067;28;20113;-88
2023/09/27 09:24:35;;;;;;;9.40;3.15;;;;;;;17.25;100.00;100258.31;5051819;28;20078;-88
2023/09/27 09:27:14;;;;;;;12.30;3.08;;;;;;;17.19;100.00;100251.03;5051836;28;20123;-88
2023/09/27 09:29:51;;;;;;;17.58;3.58;;;;;;;17.10;100.00;100248.28;5051927;28;20025;-88
2023/09/27 09:32:25;;;;;;;12.15;3.42;;;;;;;17.28;100.00;100242.41;5051049;28;20043;-87
2023/09/27 09:34:54;;;;;;;11.75;3.97;;;;;;;17.08;100.00;100231.94;5051766;28;20143;-87
2023/09/27 09:37:21;;;;;;;15.68;2.95;;;;;;;17.17;100.00;100221.66;5051326;28;20027;-88
2023/09/27 09:39:49;;;;;;;15.63;3.78;;;;;;;17.16;100.00;100220.00;5051554;28;20102;-88
2023/09/27 09:42:31;;;;;;;13.63;3.17;;;;;;;17.11;100.00;100239.47;5051282;28;20025;-88
2023/09/27 09:45:06;;;;;;;14.20;3.17;;;;;;;17.16;100.00;100226.03;5051080;28;20024;-89
2023/09/27 09:47:35;;;;;;;10.23;2.88;;;;;;;17.18;100.00;100218.91;5049512;28;20024;-88
2023/09/27 09:50:06;;;;;;;15.23;3.75;;;;;;;17.13;100.00;100202.03;5050938;28;20025;-88
2023/09/27 09:52:32;;;;;;;12.50;2.80;;;;;;;17.29;100.00;100215.38;5051135;28;20025;-88
2023/09/27 09:54:58;;;;;;;15.88;3.50;;;;;;;17.18;100.00;100216.31;5051214;28;20037;-89
2023/09/27 09:57:35;;;;;;;12.95;2.95;;;;;;;17.25;100.00;100201.75;5051402;28;20025;-89
2023/09/27 10:00:49;;;;;;;16.73;3.78;;;;;;;17.30;100.00;100196.13;5050961;28;20048;-88
2023/09/27 10:03:07;;;;;;;10.85;2.72;;;;;;;17.38;100.00;100167.56;5041258;28;20423;-89
2023/09/27 10:05:39;;;;;;;10.73;2.97;;;;;;;17.39;100.00;100190.09;5033398;28;20025;-89
2023/09/27 10:08:06;;;;;;;14.23;3.33;;;;;;;17.34;100.00;100181.88;5055469;28;20029;-90
2023/09/27 10:10:33;;;;;;;14.35;2.63;;;;;;;17.34;100.00;100166.22;5055140;28;20089;-88
2023/09/27 10:13:00;;;;;;;9.57;2.72;;;;;;;17.39;100.00;100152.75;5053924;28;20025;-88
2023/09/27 10:15:26;;;;;;;17.17;2.92;;;;;;;17.38;100.00;100131.03;5054009;28;20025;-89
2023/09/27 10:17:52;;;;;;;12.07;4.40;;;;;;;17.22;100.00;100112.53;5055338;28;20095;-89
2023/09/27 10:20:22;;;;;;;11.45;3.25;;;;;;;17.35;100.00;100078.34;5054496;28;20102;-88
2023/09/27 10:22:49;;;;;;;15.00;3.47;;;;;;;17.41;100.00;100094.25;5055319;28;20027;-90
2023/09/27 10:25:26;;;;;;;18.55;4.07;;;;;;;17.38;100.00;100107.56;5053709;28;20040;-90
2023/09/27 10:28:15;;;;;;;13.07;2.55;;;;;;;17.24;100.00;100132.31;5055204;28;20135;-89
2023/09/27 10:30:40;;;;;;;13.77;3.92;;;;;;;17.22;100.00;100138.63;5053750;28;20032;-89
2023/09/27 10:33:15;;;;;;;10.88;3.03;;;;;;;17.31;100.00;100119.50;5054466;28;20029;-90
2023/09/27 10:35:42;;;;;;;14.65;4.00;;;;;;;17.27;100.00;100134.63;5054765;28;20021;-90
2023/09/27 10:38:10;;;;;;;11.35;2.92;;;;;;;17.18;100.00;100140.66;5055320;28;20040;-89
2023/09/27 10:40:44;;;;;;;17.52;4.72;;;;;;;17.13;100.00;100147.28;5054659;28;20067;-90
2023/09/27 10:43:32;;;;;;;11.30;2.90;;;;;;;17.16;100.00;100155.63;5036579;28;20035;-89
2023/09/27 10:45:59;;;;;;;9.20;3.00;;;;;;;17.19;100.00;100120.63;5027985;28;20492;-90
2023/09/27 10:48:24;;;;;;;14.60;3.22;;;;;;;17.22;100.00;100113.38;5034961;28;20087;-90
2023/09/27 10:50:55;;;;;;;13.20;3.50;;;;;;;17.26;100.00;100093.84;5034918;28;20021;-90
2023/09/27 10:53:21;;;;;;;15.35;3.33;;;;;;;17.45;100.00;100059.06;5026921;28;20111;-89
2023/09/27 10:55:46;;;;;;;13.02;2.95;;;;;;;17.40;100.00;100057.84;5054172;28;20491;-89
2023/09/27 10:58:15;;;;;;;26.98;3.40;;;;;;;17.34;100.00;100069.69;5054616;28;20033;-89
2023/09/27 11:00:57;;;;;;;11.10;3.13;;;;;;;17.44;100.00;100047.00;5053605;28;20036;-89
2023/09/27 11:03:33;;;;;;;11.00;3.78;;;;;;;17.40;100.00;100066.50;5054089;28;20105;-89
2023/09/27 11:06:11;;;;;;;12.25;3.30;;;;;;;17.27;100.00;100085.06;5054670;28;20021;-90
2023/09/27 11:08:36;;;;;;;12.18;3.72;;;;;;;17.23;100.00;100093.31;5035228;28;20024;-90
2023/09/27 11:11:06;;;;;;;10.90;3.13;;;;;;;17.24;100.00;100066.25;5053424;28;20052;-89